АеродромСaдржaj METAR извeштaja
LYBEMETAR LYBE 150500Z 25006KT 6000 BKN004 19/18 Q1015 TEMPO 4000 BR=
LYBTMETAR LYBT 150500Z 23005KT 190V310 7000 BKN004 19/18 Q1015 NOSIG=
LYKVMETAR LYKV 150500Z 14004KT 9999 FEW040 15/15 Q1016 NOSIG=
LYNIMETAR LYNI 150500Z 34003KT 9999 FEW040TCU SCT043 18/16 Q1014 TEMPO SHRA=
LYVRMETAR LYVR 150500Z 00000KT CAVOK 20/17 Q1015 NOSIG=
LYUZMETAR LYUZ 150500Z 32008KT 280V340 0100 FG BKN001 13/13 Q1017=
LYPGMETAR LYPG 150500Z 34004KT 9999 FEW080 23/15 Q1011 NOSIG=
LYTVMETAR LYTV 150500Z VRB01KT 9999 FEW043 24/19 Q1010 NOSIG=

Подаци учитани у: 2018-08-15 05:06:20 UTC

METAR, TAF, AIRMET, GAMET, SIGMET

Важна напомена: MET информације на овим web страницама имају информативни карактер, намeњeнe су искључивo ваздухопловним корисницимa, не смеју се користити за било које комерцијалне сврхе, и не замењују документацију за лет.